sensor_id;sensor_type;location;lat;lon;timestamp;pressure;altitude;pressure_sealevel;temperature;humidity
84865;BME280;75122;41.650;25.368;2024-03-22T00:01:10;98678.84;;;8.75;56.08
84865;BME280;75122;41.650;25.368;2024-03-22T00:03:36;98683.03;;;8.76;56.55
84865;BME280;75122;41.650;25.368;2024-03-22T00:06:01;98685.22;;;8.61;58.25
84865;BME280;75122;41.650;25.368;2024-03-22T00:08:27;98676.38;;;8.69;56.67
84865;BME280;75122;41.650;25.368;2024-03-22T00:10:52;98672.81;;;8.81;56.04
84865;BME280;75122;41.650;25.368;2024-03-22T00:13:18;98660.44;;;8.83;56.88
84865;BME280;75122;41.650;25.368;2024-03-22T00:15:43;98655.72;;;8.80;56.98
84865;BME280;75122;41.650;25.368;2024-03-22T00:18:09;98667.41;;;8.83;57.64
84865;BME280;75122;41.650;25.368;2024-03-22T00:20:35;98660.34;;;8.90;57.52
84865;BME280;75122;41.650;25.368;2024-03-22T00:23:00;98662.69;;;8.80;59.06
84865;BME280;75122;41.650;25.368;2024-03-22T00:25:26;98661.53;;;8.76;58.04
84865;BME280;75122;41.650;25.368;2024-03-22T00:27:51;98663.59;;;8.56;59.27
84865;BME280;75122;41.650;25.368;2024-03-22T00:30:16;98657.63;;;8.55;59.49
84865;BME280;75122;41.650;25.368;2024-03-22T00:32:42;98658.56;;;8.61;58.06
84865;BME280;75122;41.650;25.368;2024-03-22T00:35:10;98664.09;;;8.64;57.74
84865;BME280;75122;41.650;25.368;2024-03-22T00:37:35;98663.78;;;8.72;58.27
84865;BME280;75122;41.650;25.368;2024-03-22T00:40:00;98671.25;;;8.80;57.71
84865;BME280;75122;41.650;25.368;2024-03-22T00:42:26;98654.03;;;8.86;56.20
84865;BME280;75122;41.650;25.368;2024-03-22T00:44:51;98653.94;;;8.93;56.22
84865;BME280;75122;41.650;25.368;2024-03-22T00:47:17;98659.00;;;8.99;57.70
84865;BME280;75122;41.650;25.368;2024-03-22T00:49:42;98659.34;;;9.03;57.30
84865;BME280;75122;41.650;25.368;2024-03-22T00:52:09;98659.94;;;9.05;56.70
84865;BME280;75122;41.650;25.368;2024-03-22T00:54:34;98659.63;;;9.13;56.31
84865;BME280;75122;41.650;25.368;2024-03-22T00:57:00;98659.97;;;9.16;56.30
84865;BME280;75122;41.650;25.368;2024-03-22T00:59:25;98660.50;;;9.18;55.68
84865;BME280;75122;41.650;25.368;2024-03-22T01:01:51;98661.09;;;9.20;55.14
84865;BME280;75122;41.650;25.368;2024-03-22T01:04:16;98660.50;;;9.18;55.80
84865;BME280;75122;41.650;25.368;2024-03-22T01:06:41;98656.03;;;9.14;57.08
84865;BME280;75122;41.650;25.368;2024-03-22T01:09:07;98663.56;;;9.15;55.32
84865;BME280;75122;41.650;25.368;2024-03-22T01:11:32;98664.69;;;9.19;55.19
84865;BME280;75122;41.650;25.368;2024-03-22T01:13:58;98663.69;;;9.20;56.55
84865;BME280;75122;41.650;25.368;2024-03-22T01:16:23;98658.97;;;9.17;55.44
84865;BME280;75122;41.650;25.368;2024-03-22T01:18:49;98665.28;;;9.21;55.82
84865;BME280;75122;41.650;25.368;2024-03-22T01:21:14;98664.22;;;9.22;55.38
84865;BME280;75122;41.650;25.368;2024-03-22T01:23:40;98660.50;;;9.18;56.37
84865;BME280;75122;41.650;25.368;2024-03-22T01:26:06;98663.00;;;9.13;57.38
84865;BME280;75122;41.650;25.368;2024-03-22T01:28:31;98665.47;;;9.08;56.08
84865;BME280;75122;41.650;25.368;2024-03-22T01:30:56;98659.69;;;8.95;56.37
84865;BME280;75122;41.650;25.368;2024-03-22T01:33:22;98656.19;;;8.89;57.05
84865;BME280;75122;41.650;25.368;2024-03-22T01:35:47;98659.19;;;8.86;58.00
84865;BME280;75122;41.650;25.368;2024-03-22T01:38:13;98660.00;;;8.86;57.73
84865;BME280;75122;41.650;25.368;2024-03-22T01:40:38;98658.34;;;8.92;55.93
84865;BME280;75122;41.650;25.368;2024-03-22T01:43:03;98657.66;;;8.97;57.34
84865;BME280;75122;41.650;25.368;2024-03-22T01:45:32;98655.28;;;8.95;56.83
84865;BME280;75122;41.650;25.368;2024-03-22T01:47:58;98648.91;;;8.98;57.13
84865;BME280;75122;41.650;25.368;2024-03-22T01:50:24;98657.00;;;9.01;56.39
84865;BME280;75122;41.650;25.368;2024-03-22T01:52:51;98645.41;;;9.04;57.23
84865;BME280;75122;41.650;25.368;2024-03-22T01:55:17;98653.97;;;9.04;57.28
84865;BME280;75122;41.650;25.368;2024-03-22T01:57:43;98651.19;;;9.06;55.71
84865;BME280;75122;41.650;25.368;2024-03-22T02:00:09;98655.78;;;9.04;57.23
84865;BME280;75122;41.650;25.368;2024-03-22T02:02:35;98656.91;;;9.08;57.06
84865;BME280;75122;41.650;25.368;2024-03-22T02:05:21;98650.28;;;9.12;57.13
84865;BME280;75122;41.650;25.368;2024-03-22T02:07:47;98651.91;;;8.95;58.39
84865;BME280;75122;41.650;25.368;2024-03-22T02:10:13;98650.25;;;9.00;55.91
84865;BME280;75122;41.650;25.368;2024-03-22T02:12:40;98653.06;;;8.99;57.43
84865;BME280;75122;41.650;25.368;2024-03-22T02:15:06;98651.06;;;8.71;57.61
84865;BME280;75122;41.650;25.368;2024-03-22T02:17:32;98661.13;;;8.49;58.41
84865;BME280;75122;41.650;25.368;2024-03-22T02:19:58;98659.78;;;8.58;58.68
84865;BME280;75122;41.650;25.368;2024-03-22T02:22:24;98662.47;;;8.52;59.65
84865;BME280;75122;41.650;25.368;2024-03-22T02:24:49;98662.94;;;8.60;58.11
84865;BME280;75122;41.650;25.368;2024-03-22T02:27:14;98660.50;;;8.65;57.35
84865;BME280;75122;41.650;25.368;2024-03-22T02:29:40;98665.69;;;8.65;58.79
84865;BME280;75122;41.650;25.368;2024-03-22T02:32:06;98670.25;;;8.63;58.08
84865;BME280;75122;41.650;25.368;2024-03-22T02:34:32;98665.44;;;8.67;57.41
84865;BME280;75122;41.650;25.368;2024-03-22T02:36:57;98661.66;;;8.69;58.15
84865;BME280;75122;41.650;25.368;2024-03-22T02:39:23;98675.47;;;8.75;57.53
84865;BME280;75122;41.650;25.368;2024-03-22T02:41:50;98678.50;;;8.72;57.12
84865;BME280;75122;41.650;25.368;2024-03-22T02:44:16;98672.00;;;8.69;57.86
84865;BME280;75122;41.650;25.368;2024-03-22T02:46:41;98674.00;;;8.67;58.02
84865;BME280;75122;41.650;25.368;2024-03-22T02:49:06;98682.69;;;8.73;57.01
84865;BME280;75122;41.650;25.368;2024-03-22T02:51:32;98675.72;;;8.73;56.72
84865;BME280;75122;41.650;25.368;2024-03-22T02:53:57;98675.72;;;8.73;56.63
84865;BME280;75122;41.650;25.368;2024-03-22T02:56:23;98677.94;;;8.70;58.66
84865;BME280;75122;41.650;25.368;2024-03-22T02:58:51;98681.53;;;8.69;57.23
84865;BME280;75122;41.650;25.368;2024-03-22T03:01:17;98686.56;;;8.64;57.55
84865;BME280;75122;41.650;25.368;2024-03-22T03:03:42;98682.53;;;8.68;56.15
84865;BME280;75122;41.650;25.368;2024-03-22T03:06:08;98679.38;;;8.66;56.43
84865;BME280;75122;41.650;25.368;2024-03-22T03:08:33;98678.59;;;8.65;57.91
84865;BME280;75122;41.650;25.368;2024-03-22T03:10:59;98677.56;;;8.66;57.39
84865;BME280;75122;41.650;25.368;2024-03-22T03:13:24;98674.66;;;8.63;56.31
84865;BME280;75122;41.650;25.368;2024-03-22T03:15:51;98677.47;;;8.43;56.63
84865;BME280;75122;41.650;25.368;2024-03-22T03:18:16;98688.16;;;8.47;56.89
84865;BME280;75122;41.650;25.368;2024-03-22T03:20:42;98681.84;;;8.42;56.21
84865;BME280;75122;41.650;25.368;2024-03-22T03:23:07;98694.63;;;8.37;55.52
84865;BME280;75122;41.650;25.368;2024-03-22T03:25:33;98686.69;;;8.39;55.75
84865;BME280;75122;41.650;25.368;2024-03-22T03:27:58;98693.63;;;8.38;56.04
84865;BME280;75122;41.650;25.368;2024-03-22T03:30:24;98694.88;;;8.36;56.88
84865;BME280;75122;41.650;25.368;2024-03-22T03:32:49;98702.47;;;8.31;56.24
84865;BME280;75122;41.650;25.368;2024-03-22T03:35:15;98698.31;;;8.30;56.42
84865;BME280;75122;41.650;25.368;2024-03-22T03:37:40;98703.41;;;8.36;55.85
84865;BME280;75122;41.650;25.368;2024-03-22T03:40:06;98706.00;;;8.36;55.17
84865;BME280;75122;41.650;25.368;2024-03-22T03:42:32;98704.28;;;8.30;56.24
84865;BME280;75122;41.650;25.368;2024-03-22T03:44:58;98704.09;;;8.25;56.33
84865;BME280;75122;41.650;25.368;2024-03-22T03:47:23;98705.44;;;8.10;56.78
84865;BME280;75122;41.650;25.368;2024-03-22T03:49:48;98712.50;;;8.03;56.91
84865;BME280;75122;41.650;25.368;2024-03-22T03:52:14;98719.28;;;7.97;56.49
84865;BME280;75122;41.650;25.368;2024-03-22T03:54:39;98715.50;;;8.00;55.95
84865;BME280;75122;41.650;25.368;2024-03-22T03:57:05;98711.34;;;7.98;55.97
84865;BME280;75122;41.650;25.368;2024-03-22T03:59:30;98720.69;;;8.00;56.00
84865;BME280;75122;41.650;25.368;2024-03-22T04:01:56;98721.75;;;7.92;56.33
84865;BME280;75122;41.650;25.368;2024-03-22T04:04:21;98715.78;;;7.91;55.97
84865;BME280;75122;41.650;25.368;2024-03-22T04:06:47;98721.88;;;7.97;55.47
84865;BME280;75122;41.650;25.368;2024-03-22T04:09:13;98721.03;;;8.03;56.10
84865;BME280;75122;41.650;25.368;2024-03-22T04:11:38;98729.34;;;8.05;55.20
84865;BME280;75122;41.650;25.368;2024-03-22T04:14:04;98721.31;;;8.13;54.90
84865;BME280;75122;41.650;25.368;2024-03-22T04:16:31;98727.50;;;8.12;54.72
84865;BME280;75122;41.650;25.368;2024-03-22T04:18:57;98739.00;;;8.16;54.35
84865;BME280;75122;41.650;25.368;2024-03-22T04:21:22;98747.13;;;8.20;54.16
84865;BME280;75122;41.650;25.368;2024-03-22T04:23:48;98746.41;;;8.13;55.36
84865;BME280;75122;41.650;25.368;2024-03-22T04:26:14;98758.00;;;8.04;55.01
84865;BME280;75122;41.650;25.368;2024-03-22T04:28:40;98756.47;;;7.96;56.07
84865;BME280;75122;41.650;25.368;2024-03-22T04:31:07;98754.31;;;7.93;56.12
84865;BME280;75122;41.650;25.368;2024-03-22T04:33:37;98753.81;;;7.84;55.62
84865;BME280;75122;41.650;25.368;2024-03-22T04:36:03;98752.06;;;7.78;55.87
84865;BME280;75122;41.650;25.368;2024-03-22T04:38:29;98753.66;;;7.79;55.63
84865;BME280;75122;41.650;25.368;2024-03-22T04:40:55;98770.06;;;7.85;56.31
84865;BME280;75122;41.650;25.368;2024-03-22T04:43:22;98780.41;;;7.85;55.08
84865;BME280;75122;41.650;25.368;2024-03-22T04:45:48;98782.00;;;7.86;56.62
84865;BME280;75122;41.650;25.368;2024-03-22T04:48:18;98782.78;;;7.86;56.03
84865;BME280;75122;41.650;25.368;2024-03-22T04:50:44;98786.59;;;7.84;55.97
84865;BME280;75122;41.650;25.368;2024-03-22T04:53:10;98785.22;;;7.81;55.91
84865;BME280;75122;41.650;25.368;2024-03-22T04:55:35;98782.47;;;7.76;55.48
84865;BME280;75122;41.650;25.368;2024-03-22T04:58:01;98795.69;;;7.86;55.52
84865;BME280;75122;41.650;25.368;2024-03-22T05:00:30;98790.34;;;7.88;56.44
84865;BME280;75122;41.650;25.368;2024-03-22T05:02:55;98790.53;;;7.86;56.56
84865;BME280;75122;41.650;25.368;2024-03-22T05:05:21;98797.66;;;7.91;56.70
84865;BME280;75122;41.650;25.368;2024-03-22T05:07:47;98798.09;;;7.88;57.49
84865;BME280;75122;41.650;25.368;2024-03-22T05:10:12;98803.00;;;7.96;56.44
84865;BME280;75122;41.650;25.368;2024-03-22T05:12:38;98797.59;;;7.97;57.27
84865;BME280;75122;41.650;25.368;2024-03-22T05:15:04;98793.38;;;8.03;56.36
84865;BME280;75122;41.650;25.368;2024-03-22T05:17:29;98809.44;;;8.05;57.33
84865;BME280;75122;41.650;25.368;2024-03-22T05:19:58;98804.94;;;8.01;56.98
84865;BME280;75122;41.650;25.368;2024-03-22T05:22:23;98815.22;;;8.07;57.23
84865;BME280;75122;41.650;25.368;2024-03-22T05:24:48;98823.50;;;8.16;57.28
84865;BME280;75122;41.650;25.368;2024-03-22T05:27:14;98817.88;;;8.19;56.17
84865;BME280;75122;41.650;25.368;2024-03-22T05:29:39;98813.50;;;8.19;57.01
84865;BME280;75122;41.650;25.368;2024-03-22T05:32:05;98817.09;;;8.18;56.68
84865;BME280;75122;41.650;25.368;2024-03-22T05:34:30;98821.84;;;8.21;54.34
84865;BME280;75122;41.650;25.368;2024-03-22T05:36:56;98815.66;;;8.22;55.73
84865;BME280;75122;41.650;25.368;2024-03-22T05:39:22;98826.13;;;8.34;54.97
84865;BME280;75122;41.650;25.368;2024-03-22T05:41:47;98827.66;;;8.41;54.54
84865;BME280;75122;41.650;25.368;2024-03-22T05:44:12;98830.97;;;8.49;54.49
84865;BME280;75122;41.650;25.368;2024-03-22T05:46:38;98834.28;;;8.56;53.81
84865;BME280;75122;41.650;25.368;2024-03-22T05:49:03;98821.63;;;8.66;53.56
84865;BME280;75122;41.650;25.368;2024-03-22T05:51:29;98830.19;;;8.66;53.71
84865;BME280;75122;41.650;25.368;2024-03-22T05:53:56;98829.09;;;8.74;53.78
84865;BME280;75122;41.650;25.368;2024-03-22T05:56:22;98832.19;;;8.82;53.01
84865;BME280;75122;41.650;25.368;2024-03-22T05:58:47;98839.16;;;8.82;51.45
84865;BME280;75122;41.650;25.368;2024-03-22T06:01:13;98841.91;;;8.87;52.96
84865;BME280;75122;41.650;25.368;2024-03-22T06:03:39;98838.66;;;8.92;51.45
84865;BME280;75122;41.650;25.368;2024-03-22T06:06:04;98838.81;;;8.97;51.22
84865;BME280;75122;41.650;25.368;2024-03-22T06:08:30;98836.00;;;8.98;51.60
84865;BME280;75122;41.650;25.368;2024-03-22T06:10:59;98845.00;;;8.96;51.01
84865;BME280;75122;41.650;25.368;2024-03-22T06:13:25;98840.88;;;9.06;51.92
84865;BME280;75122;41.650;25.368;2024-03-22T06:15:50;98846.00;;;9.13;52.27
84865;BME280;75122;41.650;25.368;2024-03-22T06:18:16;98853.16;;;9.11;50.72
84865;BME280;75122;41.650;25.368;2024-03-22T06:20:42;98845.00;;;9.14;51.54
84865;BME280;75122;41.650;25.368;2024-03-22T06:23:09;98853.94;;;9.29;51.86
84865;BME280;75122;41.650;25.368;2024-03-22T06:25:34;98853.00;;;9.42;52.07
84865;BME280;75122;41.650;25.368;2024-03-22T06:28:00;98850.31;;;9.49;50.08
84865;BME280;75122;41.650;25.368;2024-03-22T06:30:25;98855.94;;;9.46;51.68
84865;BME280;75122;41.650;25.368;2024-03-22T06:32:52;98855.03;;;9.52;51.97
84865;BME280;75122;41.650;25.368;2024-03-22T06:35:18;98850.16;;;9.44;51.26
84865;BME280;75122;41.650;25.368;2024-03-22T06:37:43;98854.91;;;9.47;52.90
84865;BME280;75122;41.650;25.368;2024-03-22T06:40:09;98858.56;;;9.57;52.68
84865;BME280;75122;41.650;25.368;2024-03-22T06:42:35;98863.09;;;9.62;53.28
84865;BME280;75122;41.650;25.368;2024-03-22T06:45:00;98858.94;;;9.72;50.51
84865;BME280;75122;41.650;25.368;2024-03-22T06:47:26;98867.59;;;9.66;51.83
84865;BME280;75122;41.650;25.368;2024-03-22T06:49:51;98866.38;;;9.80;52.16
84865;BME280;75122;41.650;25.368;2024-03-22T06:52:16;98866.66;;;9.91;50.80
84865;BME280;75122;41.650;25.368;2024-03-22T06:54:43;98870.53;;;9.70;50.09
84865;BME280;75122;41.650;25.368;2024-03-22T06:57:08;98873.28;;;9.87;51.55
84865;BME280;75122;41.650;25.368;2024-03-22T06:59:34;98872.19;;;10.06;50.27
84865;BME280;75122;41.650;25.368;2024-03-22T07:01:59;98872.53;;;10.09;49.37
84865;BME280;75122;41.650;25.368;2024-03-22T07:04:25;98880.47;;;10.26;50.06
84865;BME280;75122;41.650;25.368;2024-03-22T07:06:50;98874.16;;;10.45;50.02
84865;BME280;75122;41.650;25.368;2024-03-22T07:09:16;98877.22;;;10.65;48.21
84865;BME280;75122;41.650;25.368;2024-03-22T07:11:41;98873.69;;;10.83;47.95
84865;BME280;75122;41.650;25.368;2024-03-22T07:14:07;98879.84;;;11.05;47.59
84865;BME280;75122;41.650;25.368;2024-03-22T07:16:32;98888.03;;;11.26;46.99
84865;BME280;75122;41.650;25.368;2024-03-22T07:19:11;98883.59;;;11.38;46.86
84865;BME280;75122;41.650;25.368;2024-03-22T07:21:45;98890.91;;;11.52;45.96
84865;BME280;75122;41.650;25.368;2024-03-22T07:24:57;98885.00;;;11.57;44.19
84865;BME280;75122;41.650;25.368;2024-03-22T07:27:36;98886.19;;;11.66;44.40
84865;BME280;75122;41.650;25.368;2024-03-22T07:30:05;98894.53;;;11.80;43.72
84865;BME280;75122;41.650;25.368;2024-03-22T07:32:30;98886.59;;;12.03;43.37
84865;BME280;75122;41.650;25.368;2024-03-22T07:34:57;98884.88;;;12.08;43.80
84865;BME280;75122;41.650;25.368;2024-03-22T07:37:22;98886.00;;;12.12;42.79
84865;BME280;75122;41.650;25.368;2024-03-22T07:39:48;98892.63;;;12.37;41.93
84865;BME280;75122;41.650;25.368;2024-03-22T07:42:13;98874.91;;;12.55;41.29
84865;BME280;75122;41.650;25.368;2024-03-22T07:44:38;98883.91;;;12.65;39.58
84865;BME280;75122;41.650;25.368;2024-03-22T07:47:04;98886.47;;;12.81;39.69
84865;BME280;75122;41.650;25.368;2024-03-22T07:49:29;98880.97;;;12.99;36.94
84865;BME280;75122;41.650;25.368;2024-03-22T07:51:56;98884.97;;;13.07;37.36
84865;BME280;75122;41.650;25.368;2024-03-22T07:54:22;98889.66;;;13.27;36.48
84865;BME280;75122;41.650;25.368;2024-03-22T07:56:47;98883.09;;;13.46;36.31
84865;BME280;75122;41.650;25.368;2024-03-22T07:59:12;98886.53;;;13.51;37.62
84865;BME280;75122;41.650;25.368;2024-03-22T08:01:38;98885.22;;;13.49;36.48
84865;BME280;75122;41.650;25.368;2024-03-22T08:04:03;98871.81;;;13.62;35.84
84865;BME280;75122;41.650;25.368;2024-03-22T08:06:29;98872.78;;;13.83;36.42
84865;BME280;75122;41.650;25.368;2024-03-22T08:08:54;98878.75;;;13.83;35.76
84865;BME280;75122;41.650;25.368;2024-03-22T08:11:20;98882.34;;;14.04;35.67
84865;BME280;75122;41.650;25.368;2024-03-22T08:13:45;98885.09;;;14.19;36.17
84865;BME280;75122;41.650;25.368;2024-03-22T08:16:11;98882.03;;;14.32;35.90
84865;BME280;75122;41.650;25.368;2024-03-22T08:18:37;98892.44;;;14.64;36.62
84865;BME280;75122;41.650;25.368;2024-03-22T08:21:02;98891.44;;;14.70;33.75
84865;BME280;75122;41.650;25.368;2024-03-22T08:23:28;98883.41;;;14.82;33.92
84865;BME280;75122;41.650;25.368;2024-03-22T08:25:53;98896.78;;;14.90;34.08
84865;BME280;75122;41.650;25.368;2024-03-22T08:28:19;98894.78;;;15.08;33.19
84865;BME280;75122;41.650;25.368;2024-03-22T08:30:44;98894.28;;;15.16;31.77
84865;BME280;75122;41.650;25.368;2024-03-22T08:33:10;98885.38;;;15.12;32.64
84865;BME280;75122;41.650;25.368;2024-03-22T08:35:36;98888.59;;;15.34;32.51
84865;BME280;75122;41.650;25.368;2024-03-22T08:38:02;98889.97;;;15.52;30.88
84865;BME280;75122;41.650;25.368;2024-03-22T08:40:29;98888.16;;;15.57;30.06
84865;BME280;75122;41.650;25.368;2024-03-22T08:42:54;98891.25;;;15.44;30.71
84865;BME280;75122;41.650;25.368;2024-03-22T08:45:20;98896.31;;;15.76;30.58
84865;BME280;75122;41.650;25.368;2024-03-22T08:47:46;98898.16;;;15.96;31.27
84865;BME280;75122;41.650;25.368;2024-03-22T08:50:11;98891.38;;;16.05;29.78
84865;BME280;75122;41.650;25.368;2024-03-22T08:52:37;98897.09;;;16.27;31.23
84865;BME280;75122;41.650;25.368;2024-03-22T08:55:03;98889.53;;;16.20;29.42
84865;BME280;75122;41.650;25.368;2024-03-22T08:57:31;98886.91;;;16.10;29.59
84865;BME280;75122;41.650;25.368;2024-03-22T08:59:56;98880.34;;;15.98;29.86
84865;BME280;75122;41.650;25.368;2024-03-22T09:02:21;98882.19;;;16.12;31.78
84865;BME280;75122;41.650;25.368;2024-03-22T09:04:47;98873.28;;;16.33;28.17
84865;BME280;75122;41.650;25.368;2024-03-22T09:07:12;98869.84;;;16.53;26.02
84865;BME280;75122;41.650;25.368;2024-03-22T09:09:38;98873.22;;;16.79;27.51
84865;BME280;75122;41.650;25.368;2024-03-22T09:12:03;98865.31;;;16.94;27.16
84865;BME280;75122;41.650;25.368;2024-03-22T09:14:29;98877.03;;;17.12;26.71
84865;BME280;75122;41.650;25.368;2024-03-22T09:16:54;98877.81;;;17.12;27.11
84865;BME280;75122;41.650;25.368;2024-03-22T09:19:19;98860.78;;;17.10;26.40
84865;BME280;75122;41.650;25.368;2024-03-22T09:21:45;98862.63;;;17.09;27.21
84865;BME280;75122;41.650;25.368;2024-03-22T09:24:10;98860.34;;;16.83;26.59
84865;BME280;75122;41.650;25.368;2024-03-22T09:26:36;98870.25;;;17.06;27.06
84865;BME280;75122;41.650;25.368;2024-03-22T09:29:01;98860.63;;;17.40;26.41
84865;BME280;75122;41.650;25.368;2024-03-22T09:31:29;98860.66;;;17.35;27.04
84865;BME280;75122;41.650;25.368;2024-03-22T09:33:56;98856.97;;;17.36;27.16
84865;BME280;75122;41.650;25.368;2024-03-22T09:36:21;98865.94;;;17.30;27.73
84865;BME280;75122;41.650;25.368;2024-03-22T09:38:47;98855.56;;;17.59;26.01
84865;BME280;75122;41.650;25.368;2024-03-22T09:41:14;98861.50;;;17.75;26.97
84865;BME280;75122;41.650;25.368;2024-03-22T09:43:39;98845.03;;;17.98;27.53
84865;BME280;75122;41.650;25.368;2024-03-22T09:46:05;98850.16;;;18.13;26.44
84865;BME280;75122;41.650;25.368;2024-03-22T09:48:31;98850.28;;;18.32;26.19
84865;BME280;75122;41.650;25.368;2024-03-22T09:50:57;98856.69;;;18.73;27.24
84865;BME280;75122;41.650;25.368;2024-03-22T09:53:25;98848.75;;;18.78;25.24
84865;BME280;75122;41.650;25.368;2024-03-22T09:55:52;98837.88;;;18.61;26.04
84865;BME280;75122;41.650;25.368;2024-03-22T09:58:23;98832.41;;;18.81;24.65
84865;BME280;75122;41.650;25.368;2024-03-22T10:00:48;98837.19;;;18.50;23.27
84865;BME280;75122;41.650;25.368;2024-03-22T10:03:14;98835.97;;;18.43;24.42
84865;BME280;75122;41.650;25.368;2024-03-22T10:05:39;98836.88;;;18.81;23.68
84865;BME280;75122;41.650;25.368;2024-03-22T10:08:04;98839.59;;;18.47;24.24
84865;BME280;75122;41.650;25.368;2024-03-22T10:10:33;98837.16;;;18.79;25.25
84865;BME280;75122;41.650;25.368;2024-03-22T10:13:02;98843.13;;;19.08;24.27
84865;BME280;75122;41.650;25.368;2024-03-22T10:15:28;98839.00;;;19.21;24.07
84865;BME280;75122;41.650;25.368;2024-03-22T10:17:56;98842.13;;;19.42;24.01
84865;BME280;75122;41.650;25.368;2024-03-22T10:20:22;98827.34;;;18.85;23.71
84865;BME280;75122;41.650;25.368;2024-03-22T10:22:57;98828.06;;;19.33;23.48
84865;BME280;75122;41.650;25.368;2024-03-22T10:25:26;98823.59;;;19.52;22.44
84865;BME280;75122;41.650;25.368;2024-03-22T10:27:56;98829.59;;;19.90;22.52
84865;BME280;75122;41.650;25.368;2024-03-22T10:30:22;98833.44;;;19.97;22.42
84865;BME280;75122;41.650;25.368;2024-03-22T10:32:49;98827.59;;;20.00;22.95
84865;BME280;75122;41.650;25.368;2024-03-22T10:35:15;98816.31;;;20.27;21.83
84865;BME280;75122;41.650;25.368;2024-03-22T10:37:41;98808.66;;;20.58;21.07
84865;BME280;75122;41.650;25.368;2024-03-22T10:40:07;98813.63;;;20.73;21.18
84865;BME280;75122;41.650;25.368;2024-03-22T10:42:41;98809.53;;;20.54;20.10
84865;BME280;75122;41.650;25.368;2024-03-22T10:45:09;98816.34;;;20.82;20.70
84865;BME280;75122;41.650;25.368;2024-03-22T10:47:36;98797.38;;;20.25;19.77
84865;BME280;75122;41.650;25.368;2024-03-22T10:50:10;98800.47;;;20.46;21.70
84865;BME280;75122;41.650;25.368;2024-03-22T10:52:40;98802.66;;;20.80;21.79
84865;BME280;75122;41.650;25.368;2024-03-22T10:55:19;98792.31;;;20.42;19.36
84865;BME280;75122;41.650;25.368;2024-03-22T10:57:48;98801.91;;;20.38;21.09
84865;BME280;75122;41.650;25.368;2024-03-22T11:00:14;98798.19;;;20.53;21.42
84865;BME280;75122;41.650;25.368;2024-03-22T11:02:43;98797.41;;;20.39;19.74
84865;BME280;75122;41.650;25.368;2024-03-22T11:05:17;98794.69;;;20.58;19.84
84865;BME280;75122;41.650;25.368;2024-03-22T11:07:44;98781.69;;;20.47;18.63
84865;BME280;75122;41.650;25.368;2024-03-22T11:10:12;98791.66;;;20.64;17.35
84865;BME280;75122;41.650;25.368;2024-03-22T11:12:39;98783.66;;;20.56;17.83
84865;BME280;75122;41.650;25.368;2024-03-22T11:15:05;98785.22;;;20.70;18.09
84865;BME280;75122;41.650;25.368;2024-03-22T11:17:30;98778.88;;;21.07;18.38
84865;BME280;75122;41.650;25.368;2024-03-22T11:19:56;98778.75;;;20.90;17.81
84865;BME280;75122;41.650;25.368;2024-03-22T11:22:21;98772.97;;;20.88;17.22
84865;BME280;75122;41.650;25.368;2024-03-22T11:24:46;98771.13;;;20.88;17.93
84865;BME280;75122;41.650;25.368;2024-03-22T11:27:12;98767.31;;;20.94;17.79
84865;BME280;75122;41.650;25.368;2024-03-22T11:29:37;98761.06;;;20.90;16.61
84865;BME280;75122;41.650;25.368;2024-03-22T11:32:12;98765.09;;;21.10;17.34
84865;BME280;75122;41.650;25.368;2024-03-22T11:34:38;98768.44;;;21.16;15.84
84865;BME280;75122;41.650;25.368;2024-03-22T11:37:05;98765.09;;;21.46;16.46
84865;BME280;75122;41.650;25.368;2024-03-22T11:39:32;98768.63;;;21.42;18.25
84865;BME280;75122;41.650;25.368;2024-03-22T11:42:00;98760.66;;;21.55;17.17
84865;BME280;75122;41.650;25.368;2024-03-22T11:44:26;98756.25;;;21.73;17.10
84865;BME280;75122;41.650;25.368;2024-03-22T11:46:52;98760.34;;;21.79;17.98
84865;BME280;75122;41.650;25.368;2024-03-22T11:49:17;98762.00;;;21.97;16.74
84865;BME280;75122;41.650;25.368;2024-03-22T11:51:45;98757.47;;;22.20;17.13
84865;BME280;75122;41.650;25.368;2024-03-22T11:54:10;98754.78;;;21.89;16.06
84865;BME280;75122;41.650;25.368;2024-03-22T11:56:35;98760.34;;;21.79;16.87
84865;BME280;75122;41.650;25.368;2024-03-22T11:59:04;98754.19;;;21.39;17.01
84865;BME280;75122;41.650;25.368;2024-03-22T12:01:30;98753.88;;;21.40;17.78
84865;BME280;75122;41.650;25.368;2024-03-22T12:03:55;98745.25;;;22.02;18.15
84865;BME280;75122;41.650;25.368;2024-03-22T12:06:21;98745.91;;;22.07;16.41
84865;BME280;75122;41.650;25.368;2024-03-22T12:08:47;98736.91;;;21.55;15.03
84865;BME280;75122;41.650;25.368;2024-03-22T12:11:13;98739.94;;;21.71;17.28
84865;BME280;75122;41.650;25.368;2024-03-22T12:13:39;98737.69;;;22.17;16.75
84865;BME280;75122;41.650;25.368;2024-03-22T12:16:05;98728.13;;;22.39;15.85
84865;BME280;75122;41.650;25.368;2024-03-22T12:18:31;98732.78;;;22.42;17.20
84865;BME280;75122;41.650;25.368;2024-03-22T12:20:57;98739.59;;;22.25;15.70
84865;BME280;75122;41.650;25.368;2024-03-22T12:23:22;98726.91;;;22.05;15.56
84865;BME280;75122;41.650;25.368;2024-03-22T12:25:50;98730.88;;;22.25;16.53
84865;BME280;75122;41.650;25.368;2024-03-22T12:28:16;98736.22;;;22.42;16.22
84865;BME280;75122;41.650;25.368;2024-03-22T12:30:41;98738.78;;;22.64;16.01
84865;BME280;75122;41.650;25.368;2024-03-22T12:33:08;98727.28;;;22.86;16.18
84865;BME280;75122;41.650;25.368;2024-03-22T12:35:39;98726.03;;;23.09;14.98
84865;BME280;75122;41.650;25.368;2024-03-22T12:38:04;98719.81;;;23.40;15.93
84865;BME280;75122;41.650;25.368;2024-03-22T12:40:30;98723.03;;;22.51;15.92
84865;BME280;75122;41.650;25.368;2024-03-22T12:42:58;98711.25;;;22.17;15.39
84865;BME280;75122;41.650;25.368;2024-03-22T12:45:23;98709.41;;;22.18;15.61
84865;BME280;75122;41.650;25.368;2024-03-22T12:47:49;98711.19;;;22.00;15.89
84865;BME280;75122;41.650;25.368;2024-03-22T12:50:14;98713.41;;;22.07;16.21